KGXY

Greeley-Weld County Airport

Greeley, Colorado, USA
METAR KGXY 231556Z AUTO 17004KT 4SM HZ CLR M04/M09 A3010 RMK AO2 SLP247 T10441089 FZRANO
Observed Flight Rules
Feb-23 @ 15:56 UTC (41 minutes ago) Marginal Visual Flight Rules
Wind Visibility Clouds Conditions
170° at 4 knots 4 miles
  • Clear skies
  • Haze
Temperatures Readings
Current -4°C / 25°F
Dewpoint -9°C / 16°F
Humidity 69%
Altimeter 30.1" Hg
Pressure 1024.7 hPa
Elevation 1420
METAR KGXY 231556Z AUTO 17004KT 4SM HZ CLR M04/M09 A3010 RMK AO2 SLP247 T10441089 FZRANO
Observed Flight Rules
Feb-23 @ 15:56 UTC
(41 minutes ago)
MVFR
Wind Visibility
170° at 4 knots 4 miles
Clouds
  • Clear skies
Conditions
  • Haze
Temperature Dewpoint
-4°C / 25°F -9°C / 16°F
Humidity Altimeter Pressure
69% 30.1" Hg 1024.7 hPa